Time;durP1;ratioP1;P1;durP2;ratioP2;P2;SDS_P1;SDS_P2;PMS_P1;PMS_P2;Temp;Humidity;BMP_temperature;BMP_pressure;BME280_temperature;BME280_humidity;BME280_pressure;Samples;Min_cycle;Max_cycle;Signal;HPM_P1;HPM_P2
2021/03/27 00:01:34;;;;;;;1.63;0.80;;;;;;;;;;5015666;28;20025;-67
2021/03/27 00:04:04;;;;;;;3.20;0.75;;;;;;;;;;5017147;28;20522;-64
2021/03/27 00:06:39;;;;;;;5.93;0.82;;;;;;;;;;5014444;28;20028;-68
2021/03/27 00:09:25;;;;;;;2.47;0.80;;;;;;;;;;5004658;28;20476;-66
2021/03/27 00:11:56;;;;;;;4.90;1.10;;;;;;;;;;5018717;28;20042;-67
2021/03/27 00:14:27;;;;;;;4.45;0.73;;;;;;;;;;5021629;28;20033;-64
2021/03/27 00:16:55;;;;;;;1.98;0.60;;;;;;;;;;5013934;28;20071;-65
2021/03/27 00:19:46;;;;;;;0.73;0.50;;;;;;;;;;5013870;28;20025;-64
2021/03/27 00:22:12;;;;;;;2.22;0.60;;;;;;;;;;5015144;28;20025;-65
2021/03/27 00:24:54;;;;;;;1.40;0.43;;;;;;;;;;5013772;28;20037;-63
2021/03/27 00:27:27;;;;;;;0.60;0.50;;;;;;;;;;5011123;28;20894;-65
2021/03/27 00:29:57;;;;;;;1.83;0.50;;;;;;;;;;5014916;28;20067;-63
2021/03/27 00:32:36;;;;;;;0.40;0.40;;;;;;;;;;4997319;28;20065;-65
2021/03/27 00:35:08;;;;;;;2.45;0.70;;;;;;;;;;5013567;28;20036;-63
2021/03/27 00:37:38;;;;;;;1.60;0.75;;;;;;;;;;5011922;28;20097;-66
2021/03/27 00:40:17;;;;;;;1.02;0.80;;;;;;;;;;5013228;28;20038;-67
2021/03/27 00:42:52;;;;;;;3.10;0.90;;;;;;;;;;5013687;28;20075;-67
2021/03/27 00:45:22;;;;;;;1.45;0.57;;;;;;;;;;5013351;28;20032;-66
2021/03/27 00:47:50;;;;;;;0.80;0.80;;;;;;;;;;5013658;28;20056;-66
2021/03/27 00:50:22;;;;;;;3.67;0.85;;;;;;;;;;5013135;28;20077;-66
2021/03/27 00:52:51;;;;;;;3.47;0.80;;;;;;;;;;5013076;28;20162;-67
2021/03/27 00:55:23;;;;;;;0.70;0.70;;;;;;;;;;4996485;28;20132;-67
2021/03/27 00:57:54;;;;;;;9.30;1.45;;;;;;;;;;5015969;28;20021;-68
2021/03/27 01:00:31;;;;;;;1.27;0.98;;;;;;;;;;5002806;28;20025;-67
2021/03/27 01:03:07;;;;;;;1.30;0.70;;;;;;;;;;5014150;28;22045;-71
2021/03/27 01:05:33;;;;;;;2.85;0.77;;;;;;;;;;4999569;28;20059;-71
2021/03/27 01:07:59;;;;;;;5.35;0.93;;;;;;;;;;5020643;28;20056;-71
2021/03/27 01:10:40;;;;;;;2.00;1.05;;;;;;;;;;5015476;28;20038;-73
2021/03/27 01:13:11;;;;;;;2.72;1.33;;;;;;;;;;5013816;28;20079;-74
2021/03/27 01:15:39;;;;;;;2.38;1.20;;;;;;;;;;5017455;28;20026;-72
2021/03/27 01:18:09;;;;;;;5.38;1.00;;;;;;;;;;5016558;28;20066;-71
2021/03/27 01:20:38;;;;;;;4.78;1.52;;;;;;;;;;5016170;28;20074;-73
2021/03/27 01:23:03;;;;;;;5.18;1.20;;;;;;;;;;5004713;28;20835;-72
2021/03/27 01:25:31;;;;;;;3.85;1.38;;;;;;;;;;5017159;28;20596;-72
2021/03/27 01:28:16;;;;;;;4.70;1.02;;;;;;;;;;5016773;28;20589;-72
2021/03/27 01:30:47;;;;;;;4.32;1.15;;;;;;;;;;5000900;28;20099;-72
2021/03/27 01:33:14;;;;;;;3.22;0.88;;;;;;;;;;5016826;28;20132;-72
2021/03/27 01:35:52;;;;;;;2.45;1.05;;;;;;;;;;5019081;28;20131;-71
2021/03/27 01:38:20;;;;;;;3.97;1.05;;;;;;;;;;5020541;28;20028;-71
2021/03/27 01:41:26;;;;;;;7.10;0.90;;;;;;;;;;5019841;28;20026;-70
2021/03/27 01:43:54;;;;;;;1.63;1.05;;;;;;;;;;5000993;28;20115;-72
2021/03/27 01:46:29;;;;;;;7.45;1.25;;;;;;;;;;4970404;28;20034;-72
2021/03/27 01:49:04;;;;;;;4.63;0.93;;;;;;;;;;5009199;28;20037;-71
2021/03/27 01:51:39;;;;;;;5.38;0.93;;;;;;;;;;5020415;28;20048;-74
2021/03/27 01:54:09;;;;;;;1.15;0.70;;;;;;;;;;5005522;28;20079;-70
2021/03/27 01:56:40;;;;;;;4.30;0.90;;;;;;;;;;5019449;28;20727;-73
2021/03/27 01:59:09;;;;;;;1.70;0.80;;;;;;;;;;5018349;28;20615;-72
2021/03/27 02:01:36;;;;;;;4.32;1.00;;;;;;;;;;5022940;28;20024;-72
2021/03/27 02:04:06;;;;;;;1.83;0.82;;;;;;;;;;5018524;28;20025;-71
2021/03/27 02:06:47;;;;;;;8.30;0.88;;;;;;;;;;5007289;28;20116;-71
2021/03/27 02:09:23;;;;;;;6.55;0.88;;;;;;;;;;5021911;28;20037;-73
2021/03/27 02:11:48;;;;;;;3.25;0.90;;;;;;;;;;5018429;28;20157;-71
2021/03/27 02:14:19;;;;;;;5.35;1.60;;;;;;;;;;5018097;28;20030;-71
2021/03/27 02:17:04;;;;;;;3.08;0.95;;;;;;;;;;5021224;28;20539;-73
2021/03/27 02:19:48;;;;;;;3.20;0.63;;;;;;;;;;5023027;28;20037;-75
2021/03/27 02:22:14;;;;;;;2.13;0.80;;;;;;;;;;5009338;28;20079;-75
2021/03/27 02:24:57;;;;;;;1.42;0.70;;;;;;;;;;5030411;28;20034;-74
2021/03/27 02:27:28;;;;;;;6.38;0.82;;;;;;;;;;5026584;28;20025;-73
2021/03/27 02:30:04;;;;;;;2.42;0.95;;;;;;;;;;5027704;28;20406;-76
2021/03/27 02:32:42;;;;;;;1.08;0.93;;;;;;;;;;5000722;28;20101;-75
2021/03/27 02:35:23;;;;;;;4.30;0.73;;;;;;;;;;5020601;28;20039;-74
2021/03/27 02:37:58;;;;;;;1.27;0.93;;;;;;;;;;4999925;28;20025;-75
2021/03/27 02:40:37;;;;;;;3.65;1.25;;;;;;;;;;5017982;28;20033;-77
2021/03/27 02:43:03;;;;;;;2.83;1.70;;;;;;;;;;5017317;28;20124;-76
2021/03/27 02:45:34;;;;;;;2.60;2.05;;;;;;;;;;5016720;28;20038;-74
2021/03/27 02:48:20;;;;;;;8.93;1.63;;;;;;;;;;5016471;28;20037;-74
2021/03/27 02:50:48;;;;;;;5.40;2.10;;;;;;;;;;5019667;28;20155;-75
2021/03/27 02:53:18;;;;;;;5.25;2.30;;;;;;;;;;5016705;28;20037;-76
2021/03/27 02:55:49;;;;;;;10.13;2.33;;;;;;;;;;5019018;28;20184;-75
2021/03/27 02:58:19;;;;;;;4.13;2.65;;;;;;;;;;5003722;28;20036;-75
2021/03/27 03:00:51;;;;;;;9.70;2.42;;;;;;;;;;5031127;28;20520;-75
2021/03/27 03:03:18;;;;;;;3.85;2.20;;;;;;;;;;5019385;28;20036;-74
2021/03/27 03:05:47;;;;;;;6.15;2.33;;;;;;;;;;5014626;28;20041;-73
2021/03/27 03:08:14;;;;;;;6.32;2.90;;;;;;;;;;5020554;28;20033;-74
2021/03/27 03:10:45;;;;;;;5.15;2.85;;;;;;;;;;5017320;28;20442;-75
2021/03/27 03:13:20;;;;;;;6.93;3.35;;;;;;;;;;5015419;28;20052;-75
2021/03/27 03:15:48;;;;;;;;;;;;;;;;;;5012554;28;20021;-74
2021/03/27 03:18:19;;;;;;;8.05;3.50;;;;;;;;;;5023970;28;19912;-76
2021/03/27 03:20:50;;;;;;;9.70;3.75;;;;;;;;;;5018557;28;20033;-75
2021/03/27 03:23:20;;;;;;;9.63;3.97;;;;;;;;;;5016365;28;20068;-73
2021/03/27 03:26:08;;;;;;;11.15;4.10;;;;;;;;;;5001162;28;20060;-75
2021/03/27 03:28:45;;;;;;;10.15;4.85;;;;;;;;;;5014989;28;20085;-76
2021/03/27 03:31:22;;;;;;;11.25;4.63;;;;;;;;;;5000605;28;20144;-76
2021/03/27 03:33:47;;;;;;;17.75;5.18;;;;;;;;;;5015845;28;20029;-75
2021/03/27 03:36:22;;;;;;;13.02;5.05;;;;;;;;;;5017987;28;20221;-73
2021/03/27 03:39:07;;;;;;;11.55;4.45;;;;;;;;;;5017272;28;20312;-74
2021/03/27 03:41:41;;;;;;;12.07;4.70;;;;;;;;;;5013963;28;20033;-75
2021/03/27 03:44:19;;;;;;;12.20;5.03;;;;;;;;;;5015974;28;21819;-75
2021/03/27 03:46:46;;;;;;;18.58;6.07;;;;;;;;;;5019596;28;20294;-73
2021/03/27 03:49:42;;;;;;;14.40;5.25;;;;;;;;;;5018020;28;20044;-69
2021/03/27 03:52:31;;;;;;;13.90;5.30;;;;;;;;;;5001352;28;20040;-72
2021/03/27 03:54:56;;;;;;;16.35;5.20;;;;;;;;;;5017944;28;20025;-72
2021/03/27 03:57:31;;;;;;;8.25;4.20;;;;;;;;;;5014998;28;20026;-73
2021/03/27 04:00:08;;;;;;;21.52;4.88;;;;;;;;;;5013566;28;20146;-72
2021/03/27 04:02:49;;;;;;;9.73;3.92;;;;;;;;;;4995344;28;20079;-69
2021/03/27 04:05:24;;;;;;;12.00;4.00;;;;;;;;;;5002496;28;20880;-72
2021/03/27 04:07:59;;;;;;;12.65;4.40;;;;;;;;;;5013546;28;20029;-71
2021/03/27 04:10:29;;;;;;;15.18;4.72;;;;;;;;;;5015669;28;20526;-69
2021/03/27 04:13:00;;;;;;;11.10;3.85;;;;;;;;;;5017543;28;20032;-75
2021/03/27 04:15:35;;;;;;;15.25;3.65;;;;;;;;;;5019552;28;20049;-73
2021/03/27 04:18:10;;;;;;;10.85;3.13;;;;;;;;;;5019173;28;20064;-73
2021/03/27 04:20:39;;;;;;;11.52;3.22;;;;;;;;;;5015462;28;20039;-75
2021/03/27 04:23:16;;;;;;;12.95;3.22;;;;;;;;;;5017302;28;20025;-72
2021/03/27 04:25:48;;;;;;;8.00;3.80;;;;;;;;;;5012275;28;20053;-75
2021/03/27 04:28:21;;;;;;;14.93;3.30;;;;;;;;;;5011898;28;20040;-75
2021/03/27 04:30:55;;;;;;;13.13;2.78;;;;;;;;;;5013464;28;20048;-75
2021/03/27 04:33:38;;;;;;;16.55;2.35;;;;;;;;;;5014559;28;20045;-73
2021/03/27 04:36:12;;;;;;;9.80;1.88;;;;;;;;;;5018600;28;20075;-71
2021/03/27 04:38:41;;;;;;;3.78;2.25;;;;;;;;;;5017887;28;20035;-74
2021/03/27 04:41:26;;;;;;;4.82;2.70;;;;;;;;;;5014624;28;20049;-75
2021/03/27 04:44:08;;;;;;;5.53;1.80;;;;;;;;;;5016939;28;20949;-75
2021/03/27 04:46:34;;;;;;;7.68;1.52;;;;;;;;;;5015525;28;21084;-75
2021/03/27 04:49:15;;;;;;;8.00;2.47;;;;;;;;;;5016542;28;20035;-76
2021/03/27 04:51:49;;;;;;;8.77;2.20;;;;;;;;;;5015042;28;20036;-75
2021/03/27 04:54:33;;;;;;;7.55;1.90;;;;;;;;;;5014609;28;20021;-75
2021/03/27 04:57:20;;;;;;;3.13;1.70;;;;;;;;;;5015179;28;20050;-75
2021/03/27 04:59:51;;;;;;;4.80;1.60;;;;;;;;;;5019250;28;20043;-76
2021/03/27 05:02:29;;;;;;;6.00;1.80;;;;;;;;;;5014547;28;20037;-76
2021/03/27 05:04:55;;;;;;;14.23;2.22;;;;;;;;;;5014176;28;20030;-75
2021/03/27 05:07:30;;;;;;;11.05;2.20;;;;;;;;;;5016212;28;20506;-76
2021/03/27 05:10:01;;;;;;;10.93;2.22;;;;;;;;;;5019653;28;20077;-76
2021/03/27 05:12:48;;;;;;;13.20;2.15;;;;;;;;;;5015929;28;20076;-76
2021/03/27 05:15:14;;;;;;;9.13;2.40;;;;;;;;;;5019758;28;20396;-75
2021/03/27 05:17:44;;;;;;;11.60;2.10;;;;;;;;;;5018637;28;20025;-76
2021/03/27 05:20:15;;;;;;;9.15;1.98;;;;;;;;;;5026513;28;20033;-76
2021/03/27 05:22:49;;;;;;;11.63;2.28;;;;;;;;;;5020636;28;20042;-73
2021/03/27 05:25:17;;;;;;;9.63;2.10;;;;;;;;;;5022472;28;20129;-75
2021/03/27 05:28:06;;;;;;;6.65;1.80;;;;;;;;;;5020933;28;20051;-72
2021/03/27 05:30:40;;;;;;;16.23;2.33;;;;;;;;;;5028837;28;20050;-73
2021/03/27 05:33:12;;;;;;;7.63;1.57;;;;;;;;;;5020243;28;20024;-75
2021/03/27 05:36:00;;;;;;;5.25;1.52;;;;;;;;;;5020047;28;20774;-73
2021/03/27 05:38:26;;;;;;;9.70;1.35;;;;;;;;;;5001633;28;20048;-73
2021/03/27 05:41:02;;;;;;;10.43;1.80;;;;;;;;;;5021860;28;20024;-74
2021/03/27 05:43:29;;;;;;;22.88;2.88;;;;;;;;;;5017583;28;20129;-71
2021/03/27 05:45:57;;;;;;;12.20;2.35;;;;;;;;;;5020682;28;20124;-70
2021/03/27 05:48:34;;;;;;;2.33;1.10;;;;;;;;;;5019704;28;20036;-68
2021/03/27 05:51:11;;;;;;;4.15;1.23;;;;;;;;;;5021630;28;20113;-70
2021/03/27 05:53:52;;;;;;;0.77;0.60;;;;;;;;;;5017953;28;20063;-72
2021/03/27 05:56:38;;;;;;;3.13;1.13;;;;;;;;;;5030193;28;20094;-74
2021/03/27 05:59:06;;;;;;;3.63;1.05;;;;;;;;;;5039664;28;20024;-72
2021/03/27 06:01:53;;;;;;;7.32;1.65;;;;;;;;;;5041072;28;20049;-70
2021/03/27 06:04:38;;;;;;;10.75;1.67;;;;;;;;;;5022823;28;20469;-69
2021/03/27 06:07:10;;;;;;;11.07;1.98;;;;;;;;;;5014326;28;20115;-69
2021/03/27 06:09:43;;;;;;;5.30;1.80;;;;;;;;;;5021614;28;20046;-68
2021/03/27 06:12:28;;;;;;;8.77;1.70;;;;;;;;;;5018027;28;20049;-65
2021/03/27 06:15:06;;;;;;;6.43;1.25;;;;;;;;;;5007034;28;20057;-66
2021/03/27 06:17:34;;;;;;;4.63;1.50;;;;;;;;;;5022892;28;20032;-68
2021/03/27 06:20:02;;;;;;;10.13;1.95;;;;;;;;;;5023735;28;20120;-64
2021/03/27 06:22:36;;;;;;;6.40;1.63;;;;;;;;;;5032027;28;20075;-65
2021/03/27 06:25:25;;;;;;;5.05;1.05;;;;;;;;;;5032064;28;20029;-68
2021/03/27 06:28:12;;;;;;;2.60;1.08;;;;;;;;;;5038253;28;20037;-67
2021/03/27 06:30:46;;;;;;;4.90;1.55;;;;;;;;;;5020108;28;21074;-65
2021/03/27 06:33:30;;;;;;;4.03;1.40;;;;;;;;;;5021488;28;20037;-62
2021/03/27 06:36:14;;;;;;;5.45;1.52;;;;;;;;;;5009849;28;20041;-65
2021/03/27 06:39:01;;;;;;;6.75;1.50;;;;;;;;;;5020024;28;20033;-65
2021/03/27 06:41:48;;;;;;;10.45;1.70;;;;;;;;;;5020968;28;20029;-65
2021/03/27 06:44:14;;;;;;;9.68;1.48;;;;;;;;;;5018286;28;20148;-66
2021/03/27 06:46:58;;;;;;;7.47;1.42;;;;;;;;;;5023428;28;20094;-65
2021/03/27 06:49:50;;;;;;;3.40;1.00;;;;;;;;;;5018098;28;20029;-66
2021/03/27 06:52:21;;;;;;;9.55;1.83;;;;;;;;;;5018443;28;20050;-67
2021/03/27 06:55:10;;;;;;;8.75;2.20;;;;;;;;;;5016512;28;20057;-65
2021/03/27 06:57:55;;;;;;;4.93;1.73;;;;;;;;;;5018480;28;20025;-70
2021/03/27 07:00:23;;;;;;;8.50;1.73;;;;;;;;;;5014801;28;20083;-73
2021/03/27 07:03:12;;;;;;;9.80;1.48;;;;;;;;;;5020888;28;20025;-68
2021/03/27 07:05:47;;;;;;;14.98;1.33;;;;;;;;;;5019800;28;20029;-68
2021/03/27 07:08:31;;;;;;;4.95;1.15;;;;;;;;;;5019530;28;20042;-68
2021/03/27 07:11:15;;;;;;;8.05;1.52;;;;;;;;;;5020965;28;20029;-66
2021/03/27 07:13:50;;;;;;;6.00;1.48;;;;;;;;;;5018903;28;20029;-69
2021/03/27 07:16:26;;;;;;;5.95;1.85;;;;;;;;;;5001464;28;20124;-68
2021/03/27 07:18:58;;;;;;;9.00;1.45;;;;;;;;;;5016411;28;20610;-68
2021/03/27 07:21:33;;;;;;;10.18;1.42;;;;;;;;;;5022171;28;20052;-67
2021/03/27 07:24:10;;;;;;;8.13;1.15;;;;;;;;;;5021332;28;20029;-68
2021/03/27 07:26:42;;;;;;;9.27;1.20;;;;;;;;;;5015815;28;20033;-68
2021/03/27 07:29:33;;;;;;;7.75;1.38;;;;;;;;;;5018827;28;21048;-68
2021/03/27 07:32:37;;;;;;;5.13;1.55;;;;;;;;;;5013838;28;20413;-68
2021/03/27 07:35:21;;;;;;;7.65;1.17;;;;;;;;;;4985243;28;20057;-67
2021/03/27 07:38:05;;;;;;;13.63;1.50;;;;;;;;;;5016378;28;20300;-68
2021/03/27 07:40:35;;;;;;;10.37;1.83;;;;;;;;;;5015453;28;20037;-68
2021/03/27 07:43:22;;;;;;;3.72;1.20;;;;;;;;;;5014969;28;20288;-73
2021/03/27 07:45:53;;;;;;;11.23;1.65;;;;;;;;;;5017716;28;20067;-69
2021/03/27 07:48:30;;;;;;;8.35;1.80;;;;;;;;;;5017245;28;20040;-68
2021/03/27 07:50:56;;;;;;;13.20;1.80;;;;;;;;;;5015692;28;22040;-67
2021/03/27 07:53:36;;;;;;;8.23;1.58;;;;;;;;;;5014412;28;20082;-66
2021/03/27 07:56:16;;;;;;;9.38;2.08;;;;;;;;;;5016415;28;20053;-67
2021/03/27 07:58:48;;;;;;;11.25;1.83;;;;;;;;;;5015158;28;20128;-69
2021/03/27 08:01:34;;;;;;;10.93;2.10;;;;;;;;;;5017861;28;20037;-66
2021/03/27 08:03:59;;;;;;;9.68;1.90;;;;;;;;;;5016579;28;21156;-69
2021/03/27 08:06:43;;;;;;;14.75;2.63;;;;;;;;;;5012564;28;20032;-66
2021/03/27 08:09:30;;;;;;;13.88;2.33;;;;;;;;;;5014914;28;20037;-67
2021/03/27 08:12:03;;;;;;;10.10;2.10;;;;;;;;;;5013604;28;20160;-69
2021/03/27 08:14:48;;;;;;;11.60;2.17;;;;;;;;;;5015570;28;20030;-70
2021/03/27 08:17:35;;;;;;;9.73;2.05;;;;;;;;;;5018138;28;20035;-70
2021/03/27 08:20:07;;;;;;;17.77;1.92;;;;;;;;;;5016949;28;20029;-71
2021/03/27 08:22:50;;;;;;;12.60;2.47;;;;;;;;;;5016186;28;20037;-67
2021/03/27 08:25:37;;;;;;;10.93;1.52;;;;;;;;;;5018373;28;20037;-66
2021/03/27 08:28:02;;;;;;;11.63;2.08;;;;;;;;;;5015711;28;20049;-68
2021/03/27 08:30:34;;;;;;;9.85;2.00;;;;;;;;;;5016247;28;20049;-67
2021/03/27 08:33:20;;;;;;;13.93;3.60;;;;;;;;;;5011357;28;20033;-69
2021/03/27 08:36:08;;;;;;;14.90;2.38;;;;;;;;;;5012860;28;20110;-69
2021/03/27 08:39:03;;;;;;;10.68;2.10;;;;;;;;;;5015531;28;20064;-67
2021/03/27 08:41:32;;;;;;;7.20;1.52;;;;;;;;;;4964621;28;20210;-67
2021/03/27 08:44:16;;;;;;;18.23;1.65;;;;;;;;;;5018654;28;20025;-67
2021/03/27 08:46:51;;;;;;;12.82;2.17;;;;;;;;;;5014768;28;20029;-70
2021/03/27 08:49:23;;;;;;;11.85;2.13;;;;;;;;;;5023743;28;20037;-69
2021/03/27 08:51:51;;;;;;;4.25;0.88;;;;;;;;;;5002087;28;20046;-67
2021/03/27 08:54:41;;;;;;;7.22;1.38;;;;;;;;;;5003156;28;20033;-70
2021/03/27 08:57:14;;;;;;;4.60;1.08;;;;;;;;;;4998654;28;20622;-70
2021/03/27 08:59:59;;;;;;;9.23;1.48;;;;;;;;;;5019365;28;20124;-69
2021/03/27 09:02:43;;;;;;;10.07;1.77;;;;;;;;;;5010704;28;20613;-68
2021/03/27 09:05:32;;;;;;;12.00;1.92;;;;;;;;;;5016566;28;20743;-71
2021/03/27 09:08:16;;;;;;;7.75;1.55;;;;;;;;;;5021427;28;20123;-66
2021/03/27 09:11:00;;;;;;;13.23;1.45;;;;;;;;;;5006845;28;20131;-68
2021/03/27 09:13:28;;;;;;;18.73;2.15;;;;;;;;;;5019297;28;20227;-66
2021/03/27 09:16:13;;;;;;;11.93;1.98;;;;;;;;;;5022263;28;20041;-68
2021/03/27 09:18:41;;;;;;;10.57;2.15;;;;;;;;;;5017114;28;20025;-65
2021/03/27 09:21:15;;;;;;;6.93;1.30;;;;;;;;;;5018826;28;20033;-68
2021/03/27 09:23:50;;;;;;;7.00;1.42;;;;;;;;;;5019822;28;20029;-71
2021/03/27 09:26:34;;;;;;;10.18;1.65;;;;;;;;;;5005949;28;20056;-70
2021/03/27 09:29:21;;;;;;;6.68;1.63;;;;;;;;;;5017763;28;20103;-65
2021/03/27 09:32:06;;;;;;;9.77;1.88;;;;;;;;;;5018724;28;20052;-70
2021/03/27 09:34:50;;;;;;;27.60;2.88;;;;;;;;;;5019109;28;20115;-67
2021/03/27 09:37:33;;;;;;;8.82;1.88;;;;;;;;;;5017994;28;20135;-69
2021/03/27 09:40:10;;;;;;;8.75;1.67;;;;;;;;;;5009579;28;20036;-70
2021/03/27 09:42:38;;;;;;;13.25;2.28;;;;;;;;;;5017171;28;20028;-68
2021/03/27 09:45:16;;;;;;;13.00;2.00;;;;;;;;;;5006738;28;20111;-68
2021/03/27 09:48:10;;;;;;;10.70;1.35;;;;;;;;;;5019748;28;20072;-70
2021/03/27 09:50:59;;;;;;;16.38;3.08;;;;;;;;;;4999592;28;20072;-69
2021/03/27 09:53:45;;;;;;;8.32;1.85;;;;;;;;;;5019075;28;20126;-69
2021/03/27 09:56:18;;;;;;;9.23;1.92;;;;;;;;;;5020944;28;20165;-68
2021/03/27 09:59:02;;;;;;;8.73;1.92;;;;;;;;;;5000319;28;20812;-70
2021/03/27 10:01:39;;;;;;;16.23;1.98;;;;;;;;;;5007289;28;20110;-69
2021/03/27 10:04:07;;;;;;;7.63;1.83;;;;;;;;;;5017628;28;20037;-67
2021/03/27 10:06:47;;;;;;;7.68;1.20;;;;;;;;;;5016688;28;20044;-69
2021/03/27 10:09:15;;;;;;;4.65;1.60;;;;;;;;;;5019538;28;20052;-67
2021/03/27 10:11:44;;;;;;;11.15;1.50;;;;;;;;;;5002601;28;20834;-68
2021/03/27 10:14:20;;;;;;;9.23;1.35;;;;;;;;;;5018924;28;20029;-69
2021/03/27 10:16:54;;;;;;;8.18;1.92;;;;;;;;;;5020197;28;20735;-65
2021/03/27 10:19:30;;;;;;;9.18;1.70;;;;;;;;;;5006891;28;20087;-66
2021/03/27 10:21:59;;;;;;;15.00;2.38;;;;;;;;;;5016672;28;21064;-67
2021/03/27 10:24:24;;;;;;;13.68;1.70;;;;;;;;;;5014859;28;20056;-63
2021/03/27 10:27:09;;;;;;;12.80;1.73;;;;;;;;;;5019291;28;20039;-64
2021/03/27 10:29:58;;;;;;;12.32;1.52;;;;;;;;;;5018328;28;20106;-67
2021/03/27 10:32:34;;;;;;;15.57;1.88;;;;;;;;;;5019946;28;20073;-66
2021/03/27 10:35:02;;;;;;;9.43;1.50;;;;;;;;;;5018965;28;20118;-65
2021/03/27 10:37:30;;;;;;;9.98;1.83;;;;;;;;;;5018489;28;20052;-64
2021/03/27 10:39:58;;;;;;;11.10;1.95;;;;;;;;;;5018474;28;20124;-66
2021/03/27 10:42:45;;;;;;;16.55;2.10;;;;;;;;;;5017877;28;20926;-62
2021/03/27 10:45:24;;;;;;;10.80;2.38;;;;;;;;;;5016970;28;20025;-65
2021/03/27 10:48:18;;;;;;;17.83;1.80;;;;;;;;;;5017134;28;20037;-62
2021/03/27 10:50:54;;;;;;;10.45;1.92;;;;;;;;;;5002125;28;20805;-68
2021/03/27 10:53:33;;;;;;;17.58;1.90;;;;;;;;;;5005323;28;20056;-67
2021/03/27 10:55:58;;;;;;;17.02;2.50;;;;;;;;;;5018951;28;20520;-67
2021/03/27 10:58:32;;;;;;;14.10;1.58;;;;;;;;;;5019675;28;20032;-68
2021/03/27 11:01:14;;;;;;;11.98;1.65;;;;;;;;;;5018249;28;20033;-70
2021/03/27 11:04:04;;;;;;;10.95;1.95;;;;;;;;;;5018672;28;20041;-65
2021/03/27 11:06:49;;;;;;;13.32;1.65;;;;;;;;;;5034380;28;20033;-69
2021/03/27 11:09:32;;;;;;;8.23;2.13;;;;;;;;;;5013749;28;20118;-71
2021/03/27 11:12:00;;;;;;;11.30;1.60;;;;;;;;;;5006238;28;20124;-68
2021/03/27 11:14:32;;;;;;;10.45;1.95;;;;;;;;;;5017418;28;20064;-62
2021/03/27 11:17:03;;;;;;;15.30;2.10;;;;;;;;;;5017967;28;20033;-69
2021/03/27 11:19:34;;;;;;;7.93;1.38;;;;;;;;;;5017758;28;20072;-68
2021/03/27 11:22:21;;;;;;;5.65;1.35;;;;;;;;;;5016997;28;20025;-72
2021/03/27 11:25:13;;;;;;;5.93;0.95;;;;;;;;;;5021148;28;20034;-68
2021/03/27 11:27:51;;;;;;;9.05;2.03;;;;;;;;;;4989459;28;20549;-69
2021/03/27 11:30:39;;;;;;;3.45;0.70;;;;;;;;;;5017631;28;20037;-68
2021/03/27 11:33:14;;;;;;;5.32;1.08;;;;;;;;;;5014084;28;20052;-68
2021/03/27 11:35:55;;;;;;;9.90;1.67;;;;;;;;;;5016684;28;20021;-66
2021/03/27 11:38:27;;;;;;;12.45;2.63;;;;;;;;;;5017522;28;20036;-68
2021/03/27 11:41:13;;;;;;;13.23;1.35;;;;;;;;;;5005685;28;20062;-67
2021/03/27 11:43:44;;;;;;;5.72;0.77;;;;;;;;;;5016486;28;20060;-68
2021/03/27 11:46:19;;;;;;;5.47;0.77;;;;;;;;;;5018294;28;20040;-71
2021/03/27 11:49:06;;;;;;;8.95;1.15;;;;;;;;;;5018629;28;20052;-70
2021/03/27 11:51:42;;;;;;;6.72;1.08;;;;;;;;;;5018578;28;20087;-70
2021/03/27 11:54:29;;;;;;;5.82;0.98;;;;;;;;;;4997930;28;20144;-70
2021/03/27 11:57:11;;;;;;;6.22;1.13;;;;;;;;;;5003943;28;20171;-70
2021/03/27 12:02:40;;;;;;;6.45;0.77;;;;;;;;;;5016172;28;20453;-70
2021/03/27 12:05:12;;;;;;;4.57;0.93;;;;;;;;;;5017539;28;20036;-71
2021/03/27 12:07:44;;;;;;;6.53;0.90;;;;;;;;;;5015733;28;20079;-71
2021/03/27 12:10:25;;;;;;;3.50;0.50;;;;;;;;;;5019932;28;20111;-71
2021/03/27 12:13:04;;;;;;;5.30;0.65;;;;;;;;;;5004613;28;20044;-72
2021/03/27 12:15:30;;;;;;;7.50;0.82;;;;;;;;;;5023744;28;20064;-69
2021/03/27 12:18:11;;;;;;;6.38;0.80;;;;;;;;;;5017833;28;20037;-67
2021/03/27 12:21:17;;;;;;;8.73;1.00;;;;;;;;;;5017796;28;20040;-66
2021/03/27 12:23:59;;;;;;;5.55;1.10;;;;;;;;;;4945518;28;20041;-68
2021/03/27 12:26:28;;;;;;;2.55;1.10;;;;;;;;;;5011861;28;20057;-70
2021/03/27 12:29:00;;;;;;;8.13;1.42;;;;;;;;;;5017417;28;20037;-70
2021/03/27 12:31:48;;;;;;;9.95;1.50;;;;;;;;;;5001496;28;20113;-69
2021/03/27 12:34:33;;;;;;;7.57;1.25;;;;;;;;;;4988534;28;20033;-70
2021/03/27 12:37:04;;;;;;;8.20;1.40;;;;;;;;;;5015556;28;20354;-67
2021/03/27 12:39:45;;;;;;;8.10;1.20;;;;;;;;;;5015031;28;20076;-65
2021/03/27 12:42:13;;;;;;;6.45;1.30;;;;;;;;;;5022093;28;20057;-63
2021/03/27 12:44:41;;;;;;;8.38;1.27;;;;;;;;;;4999041;28;20534;-62
2021/03/27 12:47:16;;;;;;;8.32;1.13;;;;;;;;;;5018076;28;20033;-62
2021/03/27 12:50:00;;;;;;;23.83;2.30;;;;;;;;;;4998553;28;20045;-62
2021/03/27 12:52:37;;;;;;;13.80;2.17;;;;;;;;;;5015818;28;20045;-61
2021/03/27 12:55:07;;;;;;;10.13;1.88;;;;;;;;;;5013516;28;20554;-63
2021/03/27 12:57:41;;;;;;;7.50;1.48;;;;;;;;;;5010600;28;20052;-64
2021/03/27 13:00:40;;;;;;;10.95;1.98;;;;;;;;;;5015071;28;20475;-61
2021/03/27 13:03:09;;;;;;;8.93;1.83;;;;;;;;;;4994211;28;20050;-64
2021/03/27 13:05:39;;;;;;;12.45;1.50;;;;;;;;;;5014471;28;20033;-65
2021/03/27 13:08:10;;;;;;;17.45;2.30;;;;;;;;;;5001749;28;20029;-64
2021/03/27 13:10:56;;;;;;;13.65;1.80;;;;;;;;;;5018297;28;20044;-65
2021/03/27 13:13:51;;;;;;;10.50;2.13;;;;;;;;;;5002082;28;20120;-66
2021/03/27 13:16:24;;;;;;;9.23;1.73;;;;;;;;;;5008107;28;22125;-65
2021/03/27 13:19:04;;;;;;;7.85;1.30;;;;;;;;;;5004360;28;20029;-66
2021/03/27 13:21:41;;;;;;;7.25;1.55;;;;;;;;;;5014480;28;20033;-69
2021/03/27 13:24:30;;;;;;;8.80;1.85;;;;;;;;;;5027371;28;20037;-63
2021/03/27 13:27:18;;;;;;;13.27;2.00;;;;;;;;;;5019682;28;20056;-65
2021/03/27 13:29:45;;;;;;;13.68;1.90;;;;;;;;;;5008859;28;20215;-64
2021/03/27 13:32:14;;;;;;;10.55;1.48;;;;;;;;;;5014607;28;20055;-66
2021/03/27 13:34:55;;;;;;;13.45;1.55;;;;;;;;;;5022279;28;20135;-67
2021/03/27 13:37:26;;;;;;;9.93;1.70;;;;;;;;;;5018493;28;20088;-65
2021/03/27 13:40:05;;;;;;;11.98;1.95;;;;;;;;;;5018111;28;20030;-67
2021/03/27 13:42:31;;;;;;;7.15;1.45;;;;;;;;;;5018536;28;20106;-65
2021/03/27 13:44:59;;;;;;;7.75;1.50;;;;;;;;;;5015750;28;20653;-67
2021/03/27 13:47:33;;;;;;;6.65;1.13;;;;;;;;;;5011296;28;20270;-64
2021/03/27 13:50:03;;;;;;;7.30;1.30;;;;;;;;;;5032859;28;20037;-67
2021/03/27 13:52:34;;;;;;;7.20;1.00;;;;;;;;;;5004386;28;20798;-66
2021/03/27 13:55:18;;;;;;;5.72;1.35;;;;;;;;;;5020935;28;20032;-67
2021/03/27 13:57:56;;;;;;;4.30;1.33;;;;;;;;;;5016382;28;20551;-65
2021/03/27 14:00:27;;;;;;;7.85;1.58;;;;;;;;;;5021976;28;20738;-65
2021/03/27 14:03:04;;;;;;;8.52;1.42;;;;;;;;;;5003423;28;20083;-67
2021/03/27 14:05:35;;;;;;;4.88;1.67;;;;;;;;;;5016630;28;20033;-63
2021/03/27 14:08:01;;;;;;;8.73;1.60;;;;;;;;;;5020117;28;20034;-66
2021/03/27 14:10:36;;;;;;;6.80;1.35;;;;;;;;;;5018343;28;20044;-65
2021/03/27 14:13:04;;;;;;;;;;;;;;;;;;5023127;28;20950;-65
2021/03/27 14:15:35;;;;;;;7.32;1.40;;;;;;;;;;5017972;28;19924;-65
2021/03/27 14:18:01;;;;;;;10.25;1.58;;;;;;;;;;5019694;28;20157;-66
2021/03/27 14:20:47;;;;;;;9.88;1.52;;;;;;;;;;5019311;28;20033;-66
2021/03/27 14:23:34;;;;;;;4.00;1.00;;;;;;;;;;5021473;28;20075;-65
2021/03/27 14:26:09;;;;;;;5.93;1.33;;;;;;;;;;5023859;28;20033;-65
2021/03/27 14:28:57;;;;;;;7.68;1.27;;;;;;;;;;5015541;28;20130;-63
2021/03/27 14:31:41;;;;;;;7.53;1.50;;;;;;;;;;5016686;28;20048;-63
2021/03/27 14:34:14;;;;;;;5.43;1.45;;;;;;;;;;5019061;28;20040;-66
2021/03/27 14:36:45;;;;;;;13.50;2.08;;;;;;;;;;5018134;28;20037;-64
2021/03/27 14:39:32;;;;;;;9.05;1.65;;;;;;;;;;5018825;28;20623;-65
2021/03/27 14:41:57;;;;;;;11.60;2.10;;;;;;;;;;5003336;28;21108;-66
2021/03/27 14:44:31;;;;;;;4.68;1.70;;;;;;;;;;5017498;28;20106;-68
2021/03/27 14:46:57;;;;;;;10.45;2.05;;;;;;;;;;5019081;28;20052;-68
2021/03/27 14:49:41;;;;;;;6.22;1.58;;;;;;;;;;5017553;28;20036;-65
2021/03/27 14:52:16;;;;;;;12.00;2.00;;;;;;;;;;5005895;28;20920;-67
2021/03/27 14:54:59;;;;;;;13.32;2.38;;;;;;;;;;5002971;28;20114;-70
2021/03/27 14:57:28;;;;;;;14.45;2.35;;;;;;;;;;5001590;28;20044;-71
2021/03/27 15:00:11;;;;;;;12.52;2.30;;;;;;;;;;5019081;28;20195;-67
2021/03/27 15:02:38;;;;;;;13.23;2.00;;;;;;;;;;5019014;28;20380;-69
2021/03/27 15:05:03;;;;;;;9.57;1.65;;;;;;;;;;5015263;28;20151;-68
2021/03/27 15:07:50;;;;;;;12.07;1.90;;;;;;;;;;5016453;28;20085;-67
2021/03/27 15:10:20;;;;;;;13.05;2.50;;;;;;;;;;5013135;28;20532;-65
2021/03/27 15:12:54;;;;;;;17.42;2.97;;;;;;;;;;5019525;28;20905;-67
2021/03/27 15:15:25;;;;;;;12.38;2.88;;;;;;;;;;5020147;28;20025;-67
2021/03/27 15:17:54;;;;;;;12.80;2.30;;;;;;;;;;5011911;28;20061;-64
2021/03/27 15:20:40;;;;;;;21.42;2.10;;;;;;;;;;5016956;28;20025;-65
2021/03/27 15:23:08;;;;;;;16.77;2.55;;;;;;;;;;5017891;28;20067;-65
2021/03/27 15:28:39;;;;;;;17.33;2.03;;;;;;;;;;5016240;28;20411;-65
2021/03/27 15:31:13;;;;;;;7.88;1.42;;;;;;;;;;5004501;28;20049;-65
2021/03/27 15:33:57;;;;;;;13.35;1.85;;;;;;;;;;5019121;28;20032;-65
2021/03/27 15:36:42;;;;;;;9.35;2.25;;;;;;;;;;4998709;28;20035;-66
2021/03/27 15:39:10;;;;;;;14.25;2.50;;;;;;;;;;5021232;28;20135;-65